createdAt,value
2023-04-08T00:01:48.537Z,100396.55
2023-04-08T00:04:17.025Z,100397.73
2023-04-08T00:06:45.615Z,100396.63
2023-04-08T00:09:13.938Z,100397.63
2023-04-08T00:11:42.658Z,100397.93
2023-04-08T00:14:11.076Z,100400.03
2023-04-08T00:16:39.473Z,100391.73
2023-04-08T00:19:07.822Z,100392.01
2023-04-08T00:21:36.205Z,100394.18
2023-04-08T00:24:05.035Z,100403.79
2023-04-08T00:26:33.362Z,100403.86
2023-04-08T00:29:01.697Z,100401.45
2023-04-08T00:31:30.511Z,100404.73
2023-04-08T00:33:59.046Z,100402.48
2023-04-08T00:36:27.752Z,100401.20
2023-04-08T00:38:56.647Z,100400.35
2023-04-08T00:41:24.992Z,100409.27
2023-04-08T00:43:54.927Z,100409.54
2023-04-08T00:46:23.481Z,100412.41
2023-04-08T00:48:52.143Z,100416.89
2023-04-08T00:51:21.327Z,100421.36
2023-04-08T00:53:49.694Z,100416.86
2023-04-08T00:56:18.011Z,100418.72
2023-04-08T00:58:46.379Z,100417.95
2023-04-08T01:01:35.107Z,100417.46
2023-04-08T01:04:37.509Z,100418.88
2023-04-08T01:07:18.989Z,100423.16
2023-04-08T01:09:54.383Z,100426.64
2023-04-08T01:12:29.034Z,100427.31
2023-04-08T01:15:07.858Z,100428.75
2023-04-08T01:17:38.197Z,100434.52
2023-04-08T01:20:08.829Z,100432.59
2023-04-08T01:23:00.901Z,100430.11
2023-04-08T01:25:35.708Z,100432.90
2023-04-08T01:28:13.277Z,100438.13
2023-04-08T01:30:43.708Z,100439.41
2023-04-08T01:33:15.432Z,100442.08
2023-04-08T01:35:45.951Z,100439.19
2023-04-08T01:38:18.525Z,100443.27
2023-04-08T01:40:47.967Z,100443.17
2023-04-08T01:43:19.129Z,100444.33
2023-04-08T01:45:50.500Z,100446.06
2023-04-08T01:48:19.034Z,100446.81
2023-04-08T01:50:48.012Z,100452.02
2023-04-08T01:53:16.402Z,100455.22
2023-04-08T01:55:46.057Z,100456.16
2023-04-08T01:58:21.379Z,100459.55
2023-04-08T02:00:51.744Z,100459.23
2023-04-08T02:03:24.401Z,100466.58
2023-04-08T02:05:53.035Z,100469.38
2023-04-08T02:08:21.393Z,100468.16
2023-04-08T02:10:49.816Z,100474.05
2023-04-08T02:13:18.294Z,100474.72
2023-04-08T02:15:54.113Z,100480.60
2023-04-08T02:18:28.258Z,100479.69
2023-04-08T02:21:14.466Z,100482.92
2023-04-08T02:23:49.208Z,100483.79
2023-04-08T02:26:19.366Z,100485.70
2023-04-08T02:28:50.242Z,100485.80
2023-04-08T02:31:20.679Z,100490.80
2023-04-08T02:33:51.514Z,100487.98
2023-04-08T02:36:20.696Z,100489.61
2023-04-08T02:38:50.483Z,100492.29
2023-04-08T02:41:18.974Z,100491.48
2023-04-08T02:43:48.046Z,100493.63
2023-04-08T02:46:16.697Z,100494.77
2023-04-08T02:48:45.288Z,100500.42
2023-04-08T02:51:13.626Z,100503.83
2023-04-08T02:53:41.932Z,100507.98
2023-04-08T02:56:11.596Z,100508.14
2023-04-08T02:58:42.590Z,100513.17
2023-04-08T03:01:11.419Z,100517.33
2023-04-08T03:03:40.599Z,100514.93
2023-04-08T03:06:09.182Z,100520.30
2023-04-08T03:08:37.664Z,100523.90
2023-04-08T03:11:06.093Z,100522.36
2023-04-08T03:13:35.565Z,100520.86
2023-04-08T03:16:04.167Z,100517.83
2023-04-08T03:18:33.865Z,100524.14
2023-04-08T03:21:03.365Z,100527.06
2023-04-08T03:23:31.723Z,100532.14
2023-04-08T03:26:00.203Z,100531.46
2023-04-08T03:28:28.561Z,100530.39
2023-04-08T03:30:57.060Z,100533.23
2023-04-08T03:33:25.394Z,100538.59
2023-04-08T03:35:55.112Z,100544.80
2023-04-08T03:38:23.561Z,100548.23
2023-04-08T03:40:51.921Z,100547.90
2023-04-08T03:43:21.977Z,100550.33
2023-04-08T03:45:50.443Z,100553.98
2023-04-08T03:48:18.903Z,100556.83
2023-04-08T03:50:47.512Z,100560.15
2023-04-08T03:53:16.348Z,100560.83
2023-04-08T03:55:44.895Z,100561.52
2023-04-08T03:58:13.499Z,100561.69
2023-04-08T04:00:42.369Z,100565.61
2023-04-08T04:03:13.142Z,100569.48
2023-04-08T04:05:41.726Z,100575.14
2023-04-08T04:08:10.108Z,100577.75
2023-04-08T04:12:28.494Z,100579.61
2023-04-08T04:14:56.977Z,100585.81
2023-04-08T04:17:25.795Z,100584.80
2023-04-08T04:19:54.337Z,100586.64
2023-04-08T04:22:22.899Z,100591.38
2023-04-08T04:24:51.351Z,100597.52
2023-04-08T04:27:19.756Z,100600.20
2023-04-08T04:29:48.393Z,100605.66
2023-04-08T04:32:17.120Z,100611.80
2023-04-08T04:34:45.750Z,100614.97
2023-04-08T04:37:14.089Z,100618.19
2023-04-08T04:39:42.443Z,100617.73
2023-04-08T04:42:11.456Z,100621.41
2023-04-08T04:44:39.923Z,100626.33
2023-04-08T04:47:09.975Z,100624.95
2023-04-08T04:49:40.398Z,100628.41
2023-04-08T04:52:09.249Z,100635.13
2023-04-08T04:54:37.731Z,100636.52
2023-04-08T04:57:06.533Z,100633.54
2023-04-08T04:59:35.110Z,100639.74
2023-04-08T05:02:03.912Z,100638.23
2023-04-08T05:04:33.409Z,100639.88
2023-04-08T05:07:02.166Z,100641.92
2023-04-08T05:09:30.860Z,100649.36
2023-04-08T05:11:59.253Z,100650.77
2023-04-08T05:14:30.878Z,100658.90
2023-04-08T05:16:59.371Z,100665.00
2023-04-08T05:19:27.909Z,100668.45
2023-04-08T05:21:56.351Z,100671.36
2023-04-08T05:24:24.742Z,100670.91
2023-04-08T05:26:53.510Z,100677.10
2023-04-08T05:29:22.145Z,100682.63
2023-04-08T05:31:51.708Z,100690.73
2023-04-08T05:34:23.202Z,100692.59
2023-04-08T05:36:52.464Z,100699.31
2023-04-08T05:39:21.460Z,100692.73
2023-04-08T05:41:49.905Z,100694.08
2023-04-08T05:44:18.754Z,100691.46
2023-04-08T05:46:47.252Z,100695.13
2023-04-08T05:49:17.360Z,100696.50
2023-04-08T05:51:46.050Z,100695.05
2023-04-08T05:54:14.377Z,100700.65
2023-04-08T05:56:42.904Z,100696.56
2023-04-08T05:59:11.374Z,100699.55
2023-04-08T06:01:39.996Z,100701.02
2023-04-08T06:04:08.719Z,100705.02
2023-04-08T06:06:40.735Z,100709.20
2023-04-08T06:09:10.209Z,100711.70
2023-04-08T06:11:38.534Z,100715.11
2023-04-08T06:14:06.933Z,100712.33
2023-04-08T06:16:35.582Z,100714.81
2023-04-08T06:19:04.011Z,100719.50
2023-04-08T06:21:32.484Z,100724.31
2023-04-08T06:24:00.896Z,100729.42
2023-04-08T06:26:29.383Z,100731.77
2023-04-08T06:28:57.817Z,100736.31
2023-04-08T06:31:26.743Z,100741.25
2023-04-08T06:33:56.203Z,100744.82
2023-04-08T06:36:25.739Z,100744.95
2023-04-08T06:38:54.258Z,100753.04
2023-04-08T06:41:22.907Z,100757.27
2023-04-08T06:43:51.259Z,100754.69
2023-04-08T06:46:19.750Z,100760.48
2023-04-08T06:48:48.372Z,100761.21
2023-04-08T06:51:16.905Z,100763.79
2023-04-08T06:53:45.339Z,100766.52
2023-04-08T06:56:13.774Z,100773.77
2023-04-08T06:58:42.164Z,100774.43
2023-04-08T07:01:11.272Z,100775.05
2023-04-08T07:03:39.847Z,100774.05
2023-04-08T07:06:08.286Z,100777.86
2023-04-08T07:08:37.543Z,100778.90
2023-04-08T07:11:06.710Z,100781.70
2023-04-08T07:13:35.183Z,100786.44
2023-04-08T07:16:03.991Z,100790.39
2023-04-08T07:18:32.993Z,100794.83
2023-04-08T07:21:01.881Z,100796.70
2023-04-08T07:23:30.665Z,100799.30
2023-04-08T07:26:04.863Z,100799.83
2023-04-08T07:28:33.339Z,100805.77
2023-04-08T07:31:16.375Z,100807.77
2023-04-08T07:33:46.289Z,100812.19
2023-04-08T07:36:15.785Z,100813.54
2023-04-08T07:38:45.058Z,100813.73
2023-04-08T07:41:13.927Z,100816.55
2023-04-08T07:43:42.368Z,100818.64
2023-04-08T07:46:11.466Z,100818.99
2023-04-08T07:48:39.934Z,100824.38
2023-04-08T07:51:11.471Z,100825.34
2023-04-08T07:53:40.781Z,100827.70
2023-04-08T07:56:14.311Z,100830.89
2023-04-08T07:58:43.339Z,100834.70
2023-04-08T08:01:36.034Z,100833.45
2023-04-08T08:04:06.376Z,100836.05
2023-04-08T08:06:36.612Z,100838.78
2023-04-08T08:09:06.068Z,100841.77
2023-04-08T08:11:36.142Z,100845.15
2023-04-08T08:14:06.107Z,100845.08
2023-04-08T08:16:36.713Z,100843.43
2023-04-08T08:19:07.543Z,100845.96
2023-04-08T08:21:39.650Z,100843.48
2023-04-08T08:24:08.198Z,100842.40
2023-04-08T08:26:37.390Z,100842.98
2023-04-08T08:29:08.589Z,100849.46
2023-04-08T08:31:37.334Z,100853.20
2023-04-08T08:34:05.934Z,100856.02
2023-04-08T08:36:34.913Z,100855.08
2023-04-08T08:39:03.520Z,100856.42
2023-04-08T08:41:38.331Z,100857.89
2023-04-08T08:44:08.781Z,100857.52
2023-04-08T08:46:37.638Z,100862.77
2023-04-08T08:49:06.625Z,100861.92
2023-04-08T08:51:36.143Z,100869.05
2023-04-08T08:54:04.836Z,100872.85
2023-04-08T08:56:34.476Z,100872.50
2023-04-08T08:59:03.272Z,100878.52
2023-04-08T09:01:38.386Z,100875.05
2023-04-08T09:04:11.173Z,100884.66
2023-04-08T09:06:41.429Z,100886.96
2023-04-08T09:09:10.821Z,100888.56
2023-04-08T09:11:46.092Z,100888.29
2023-04-08T09:14:32.978Z,100892.33
2023-04-08T09:17:02.146Z,100898.33
2023-04-08T09:19:30.537Z,100900.11
2023-04-08T09:22:11.487Z,100902.70
2023-04-08T09:24:40.775Z,100906.70
2023-04-08T09:27:09.200Z,100908.58
2023-04-08T09:29:39.831Z,100905.77
2023-04-08T09:32:08.537Z,100903.69
2023-04-08T09:34:44.421Z,100909.36
2023-04-08T09:37:12.820Z,100909.94
2023-04-08T09:39:41.708Z,100904.64
2023-04-08T09:42:14.783Z,100905.93
2023-04-08T09:44:47.260Z,100909.89
2023-04-08T09:47:25.968Z,100910.11
2023-04-08T09:50:04.099Z,100908.64
2023-04-08T09:52:51.634Z,100912.33
2023-04-08T09:55:23.886Z,100913.70
2023-04-08T09:58:04.315Z,100914.74
2023-04-08T10:00:41.291Z,100918.09
2023-04-08T10:03:21.957Z,100919.65
2023-04-08T10:05:53.516Z,100923.52
2023-04-08T10:08:23.341Z,100921.79
2023-04-08T10:10:52.152Z,100924.01
2023-04-08T10:13:21.424Z,100927.04
2023-04-08T10:15:51.103Z,100923.96
2023-04-08T10:18:29.078Z,100926.31
2023-04-08T10:20:58.147Z,100920.34
2023-04-08T10:23:59.461Z,100920.21
2023-04-08T10:26:45.679Z,100925.51
2023-04-08T10:29:18.102Z,100925.36
2023-04-08T10:31:48.142Z,100929.20
2023-04-08T10:34:22.991Z,100926.68
2023-04-08T10:36:52.233Z,100922.48
2023-04-08T10:39:21.930Z,100919.05
2023-04-08T10:41:54.351Z,100916.27
2023-04-08T10:44:26.696Z,100913.60
2023-04-08T10:46:55.920Z,100914.59
2023-04-08T10:49:33.570Z,100915.98
2023-04-08T10:52:08.589Z,100917.15
2023-04-08T10:54:38.473Z,100914.40
2023-04-08T10:57:07.041Z,100911.23
2023-04-08T10:59:36.966Z,100916.73
2023-04-08T11:02:05.643Z,100916.64
2023-04-08T11:04:34.325Z,100919.89
2023-04-08T11:07:05.727Z,100921.96
2023-04-08T11:09:37.620Z,100920.92
2023-04-08T11:12:06.173Z,100925.70
2023-04-08T11:14:35.529Z,100921.21
2023-04-08T11:17:06.238Z,100918.35
2023-04-08T11:19:37.010Z,100917.34
2023-04-08T11:22:05.923Z,100913.20
2023-04-08T11:24:34.445Z,100911.43
2023-04-08T11:27:08.503Z,100910.63
2023-04-08T11:29:38.239Z,100909.86
2023-04-08T11:32:09.021Z,100905.96
2023-04-08T11:34:40.570Z,100907.63
2023-04-08T11:37:09.012Z,100907.90
2023-04-08T11:39:44.636Z,100908.39
2023-04-08T11:42:30.483Z,100909.34
2023-04-08T11:57:54.941Z,100914.24
2023-04-08T12:00:24.337Z,100920.73
2023-04-08T12:02:53.252Z,100924.86
2023-04-08T12:05:22.089Z,100920.98
2023-04-08T12:07:50.809Z,100919.23
2023-04-08T12:10:19.237Z,100919.57
2023-04-08T12:12:47.771Z,100918.06
2023-04-08T12:15:16.070Z,100916.91
2023-04-08T12:17:45.424Z,100916.51
2023-04-08T12:20:14.135Z,100918.02
2023-04-08T12:22:42.967Z,100915.23
2023-04-08T12:25:11.301Z,100916.80
2023-04-08T12:27:39.816Z,100914.98
2023-04-08T12:30:09.648Z,100916.52
2023-04-08T12:32:38.045Z,100919.36
2023-04-08T12:35:06.920Z,100915.31
2023-04-08T12:37:35.889Z,100910.09
2023-04-08T12:40:04.882Z,100908.05
2023-04-08T12:42:33.337Z,100905.88
2023-04-08T12:45:01.674Z,100901.27
2023-04-08T12:47:30.475Z,100898.83
2023-04-08T12:49:58.878Z,100895.53
2023-04-08T12:52:27.456Z,100897.23
2023-04-08T12:54:56.060Z,100898.02
2023-04-08T12:57:24.439Z,100896.59
2023-04-08T12:59:53.574Z,100893.98
2023-04-08T13:02:22.137Z,100893.33
2023-04-08T13:04:52.338Z,100889.94
2023-04-08T13:07:20.791Z,100887.55
2023-04-08T13:09:49.178Z,100884.75
2023-04-08T13:12:17.485Z,100880.52
2023-04-08T13:14:46.497Z,100883.27
2023-04-08T13:17:15.106Z,100883.80
2023-04-08T13:19:43.528Z,100881.64
2023-04-08T13:22:11.885Z,100883.14
2023-04-08T13:24:40.207Z,100883.09
2023-04-08T13:27:08.588Z,100881.86
2023-04-08T13:29:36.965Z,100882.27
2023-04-08T13:32:05.709Z,100882.29
2023-04-08T13:34:34.141Z,100883.36
2023-04-08T13:37:03.218Z,100882.19
2023-04-08T13:39:31.924Z,100886.02
2023-04-08T13:42:00.319Z,100883.75
2023-04-08T13:44:31.082Z,100884.98
2023-04-08T13:47:00.146Z,100880.23
2023-04-08T13:49:28.671Z,100879.96
2023-04-08T13:51:57.010Z,100883.02
2023-04-08T13:54:25.910Z,100880.80
2023-04-08T13:56:54.296Z,100884.06
2023-04-08T13:59:23.177Z,100881.41
2023-04-08T14:01:54.281Z,100879.50
2023-04-08T14:04:23.995Z,100878.23
2023-04-08T14:06:53.424Z,100881.63
2023-04-08T14:09:21.876Z,100882.48
2023-04-08T14:11:50.646Z,100886.49
2023-04-08T14:14:19.194Z,100882.34
2023-04-08T14:16:47.725Z,100882.08
2023-04-08T14:19:16.678Z,100879.58
2023-04-08T14:21:45.237Z,100881.02
2023-04-08T14:24:13.772Z,100879.80
2023-04-08T14:26:42.212Z,100876.73
2023-04-08T14:29:11.079Z,100874.17
2023-04-08T14:31:39.467Z,100876.36
2023-04-08T14:34:07.911Z,100880.72
2023-04-08T14:36:36.287Z,100882.15
2023-04-08T14:39:04.657Z,100880.73
2023-04-08T14:41:33.371Z,100878.95
2023-04-08T14:44:01.933Z,100880.56
2023-04-08T14:46:30.699Z,100877.52
2023-04-08T14:48:59.268Z,100878.71
2023-04-08T14:51:27.586Z,100877.48
2023-04-08T14:53:56.158Z,100879.45
2023-04-08T14:56:24.592Z,100879.17
2023-04-08T14:58:53.222Z,100877.70
2023-04-08T15:01:21.867Z,100877.55
2023-04-08T15:03:50.439Z,100877.75
2023-04-08T15:15:05.495Z,100882.18
2023-04-08T15:17:33.992Z,100887.15
2023-04-08T15:20:02.427Z,100890.40
2023-04-08T15:22:30.863Z,100887.75
2023-04-08T15:24:59.309Z,100892.52
2023-04-08T15:27:27.832Z,100891.27
2023-04-08T15:29:56.163Z,100895.21
2023-04-08T15:32:24.690Z,100896.98
2023-04-08T15:34:53.310Z,100895.95
2023-04-08T15:37:23.143Z,100895.56
2023-04-08T15:39:53.889Z,100893.96
2023-04-08T15:42:22.670Z,100889.70
2023-04-08T15:44:51.060Z,100894.73
2023-04-08T15:47:19.503Z,100891.00
2023-04-08T15:49:48.856Z,100890.46
2023-04-08T15:52:17.734Z,100891.41
2023-04-08T15:54:46.377Z,100892.83
2023-04-08T15:57:16.231Z,100892.06
2023-04-08T15:59:44.884Z,100892.85
2023-04-08T16:02:13.345Z,100897.11
2023-04-08T16:04:42.847Z,100899.81
2023-04-08T16:07:11.531Z,100897.48
2023-04-08T16:09:39.950Z,100899.45
2023-04-08T16:12:08.621Z,100900.81
2023-04-08T16:14:37.110Z,100902.27
2023-04-08T16:17:06.374Z,100906.80
2023-04-08T16:19:34.768Z,100906.98
2023-04-08T16:22:03.265Z,100905.81
2023-04-08T16:24:36.059Z,100909.25
2023-04-08T16:27:04.668Z,100912.70
2023-04-08T16:29:33.208Z,100912.44
2023-04-08T16:32:02.049Z,100914.85
2023-04-08T16:34:30.568Z,100917.08
2023-04-08T16:36:58.950Z,100921.90
2023-04-08T16:39:28.092Z,100920.45
2023-04-08T16:41:56.459Z,100919.76
2023-04-08T16:44:25.988Z,100925.20
2023-04-08T16:46:54.301Z,100925.82
2023-04-08T16:49:22.986Z,100925.09
2023-04-08T16:51:51.695Z,100927.04
2023-04-08T16:54:20.034Z,100927.45
2023-04-08T16:56:48.344Z,100925.65
2023-04-08T16:59:16.798Z,100929.13
2023-04-08T17:01:45.213Z,100930.18
2023-04-08T17:04:13.589Z,100932.95
2023-04-08T17:06:42.307Z,100930.41
2023-04-08T17:09:10.994Z,100930.77
2023-04-08T17:11:39.382Z,100930.02
2023-04-08T17:14:08.107Z,100931.13
2023-04-08T17:16:36.776Z,100936.34
2023-04-08T17:19:07.789Z,100942.45
2023-04-08T17:21:36.644Z,100944.02
2023-04-08T17:24:05.327Z,100949.25
2023-04-08T17:26:34.076Z,100949.09
2023-04-08T17:29:03.402Z,100944.73
2023-04-08T17:31:33.067Z,100947.90
2023-04-08T17:34:01.686Z,100947.40
2023-04-08T17:36:31.327Z,100947.48
2023-04-08T17:39:00.148Z,100949.45
2023-04-08T17:41:39.129Z,100951.11
2023-04-08T17:44:08.567Z,100947.88
2023-04-08T17:46:37.283Z,100950.21
2023-04-08T17:49:05.981Z,100952.86
2023-04-08T17:51:34.415Z,100957.19
2023-04-08T17:54:03.117Z,100961.52
2023-04-08T17:56:33.326Z,100964.52
2023-04-08T17:59:01.972Z,100962.27
2023-04-08T18:01:30.469Z,100965.27
2023-04-08T18:03:59.212Z,100970.36
2023-04-08T18:06:28.351Z,100976.64
2023-04-08T18:08:57.056Z,100975.02
2023-04-08T18:11:28.505Z,100986.13
2023-04-08T18:13:56.941Z,100985.91
2023-04-08T18:16:25.597Z,100991.08
2023-04-08T18:18:54.095Z,100991.20
2023-04-08T18:21:22.572Z,100994.16
2023-04-08T18:23:51.319Z,100991.10
2023-04-08T18:26:20.078Z,100996.03
2023-04-08T18:28:48.403Z,100994.35
2023-04-08T18:31:16.844Z,100993.07
2023-04-08T18:33:45.237Z,100998.56
2023-04-08T18:36:14.095Z,100996.95
2023-04-08T18:38:44.670Z,100996.91
2023-04-08T18:41:13.322Z,100996.88
2023-04-08T18:43:41.883Z,101004.63
2023-04-08T18:46:10.482Z,101003.55
2023-04-08T18:48:38.890Z,101005.07
2023-04-08T18:51:08.220Z,101010.52
2023-04-08T18:53:36.580Z,101002.61
2023-04-08T18:56:05.735Z,101012.86
2023-04-08T18:58:34.140Z,101008.64
2023-04-08T19:01:08.024Z,101006.23
2023-04-08T19:03:36.901Z,101008.89
2023-04-08T19:06:11.048Z,101011.19
2023-04-08T19:08:39.615Z,101011.27
2023-04-08T19:11:07.964Z,101012.33
2023-04-08T19:13:36.363Z,101010.06
2023-04-08T19:16:05.413Z,101013.22
2023-04-08T19:18:33.724Z,101008.92
2023-04-08T19:21:02.331Z,101008.23
2023-04-08T19:23:32.084Z,101009.66
2023-04-08T19:26:06.471Z,101005.87
2023-04-08T19:28:35.215Z,101005.05
2023-04-08T19:31:04.035Z,101005.39
2023-04-08T19:33:32.430Z,101005.16
2023-04-08T19:36:00.807Z,101005.66
2023-04-08T19:38:29.240Z,101008.94
2023-04-08T19:40:57.675Z,101010.20
2023-04-08T19:43:26.349Z,101007.89
2023-04-08T19:45:55.438Z,101013.91
2023-04-08T19:48:25.029Z,101010.19
2023-04-08T19:50:53.507Z,101011.13
2023-04-08T19:53:21.863Z,101012.11
2023-04-08T19:55:50.770Z,101010.77
2023-04-08T19:58:19.116Z,101016.81
2023-04-08T20:00:47.505Z,101014.45
2023-04-08T20:03:16.066Z,101012.82
2023-04-08T20:05:46.797Z,101013.61
2023-04-08T20:08:15.744Z,101013.41
2023-04-08T20:10:45.171Z,101012.17
2023-04-08T20:13:14.683Z,101010.09
2023-04-08T20:15:45.278Z,101007.27
2023-04-08T20:18:15.380Z,101006.49
2023-04-08T20:20:43.868Z,101008.77
2023-04-08T20:23:12.321Z,101008.35
2023-04-08T20:25:41.228Z,101006.93
2023-04-08T20:28:09.719Z,101008.84
2023-04-08T20:30:38.636Z,101006.69
2023-04-08T20:33:07.037Z,101012.23
2023-04-08T20:35:35.792Z,101008.54
2023-04-08T20:38:05.268Z,101009.59
2023-04-08T20:40:33.723Z,101009.86
2023-04-08T20:43:02.510Z,101012.02
2023-04-08T20:45:30.821Z,101010.21
2023-04-08T20:47:59.524Z,101006.83
2023-04-08T20:50:28.558Z,101005.55
2023-04-08T20:52:56.935Z,101005.14
2023-04-08T20:55:25.268Z,101008.00
2023-04-08T20:57:53.653Z,101008.64
2023-04-08T21:00:22.074Z,101011.67
2023-04-08T21:02:51.039Z,101010.17
2023-04-08T21:05:19.487Z,101007.36
2023-04-08T21:07:47.834Z,101011.28
2023-04-08T21:10:17.482Z,101014.37
2023-04-08T21:12:46.043Z,101013.94
2023-04-08T21:15:14.396Z,101012.48
2023-04-08T21:17:42.784Z,101009.51
2023-04-08T21:20:12.110Z,101008.63
2023-04-08T21:22:40.495Z,101012.98
2023-04-08T21:25:09.454Z,101011.18
2023-04-08T21:27:37.842Z,101015.98
2023-04-08T21:30:07.770Z,101013.60
2023-04-08T21:32:36.252Z,101012.65
2023-04-08T21:35:05.626Z,101012.35
2023-04-08T21:37:34.684Z,101008.21
2023-04-08T21:40:04.162Z,101008.79
2023-04-08T21:42:33.007Z,101008.65
2023-04-08T21:45:01.832Z,101004.33
2023-04-08T21:47:30.352Z,101005.65
2023-04-08T21:49:58.985Z,101008.31
2023-04-08T21:52:27.467Z,101008.04
2023-04-08T21:54:56.168Z,101010.14
2023-04-08T21:57:24.513Z,101007.24
2023-04-08T21:59:52.983Z,101005.92
2023-04-08T22:02:22.092Z,101003.72
2023-04-08T22:04:50.645Z,101003.25
2023-04-08T22:07:19.201Z,101006.65
2023-04-08T22:09:47.635Z,101001.80
2023-04-08T22:12:16.219Z,100999.08
2023-04-08T22:14:44.565Z,100996.73
2023-04-08T22:17:12.984Z,100995.61
2023-04-08T22:19:41.578Z,100996.73
2023-04-08T22:22:10.000Z,100997.58
2023-04-08T22:24:38.395Z,101001.89
2023-04-08T22:27:07.028Z,100996.16
2023-04-08T22:29:35.476Z,100994.20
2023-04-08T22:32:03.777Z,100991.84
2023-04-08T22:34:32.237Z,100988.43
2023-04-08T22:37:00.517Z,100987.69
2023-04-08T22:39:28.788Z,100984.23
2023-04-08T22:41:57.537Z,100984.33
2023-04-08T22:44:25.872Z,100988.91
2023-04-08T22:46:54.182Z,100985.30
2023-04-08T22:49:22.500Z,100989.70
2023-04-08T22:51:50.905Z,100992.20
2023-04-08T22:54:19.366Z,100991.60
2023-04-08T22:56:47.897Z,100993.48
2023-04-08T22:59:16.316Z,100993.64
2023-04-08T23:01:45.229Z,100993.94
2023-04-08T23:04:13.780Z,100994.03
2023-04-08T23:06:42.182Z,100993.99
2023-04-08T23:09:10.628Z,100993.98
2023-04-08T23:11:38.962Z,100989.23
2023-04-08T23:14:07.441Z,100992.71
2023-04-08T23:16:35.794Z,100991.87
2023-04-08T23:19:04.201Z,100991.01
2023-04-08T23:21:32.592Z,100993.66
2023-04-08T23:24:00.903Z,100996.50
2023-04-08T23:26:29.332Z,100991.45
2023-04-08T23:28:57.661Z,100993.27
2023-04-08T23:31:26.113Z,100991.00
2023-04-08T23:33:54.446Z,100988.84
2023-04-08T23:36:23.036Z,100987.06
2023-04-08T23:38:51.610Z,100984.09
2023-04-08T23:41:20.656Z,100978.30
2023-04-08T23:43:49.769Z,100982.01
2023-04-08T23:46:18.197Z,100982.73
2023-04-08T23:48:46.579Z,100983.77
2023-04-08T23:51:15.020Z,100983.57
2023-04-08T23:53:43.365Z,100980.11
2023-04-08T23:56:11.762Z,100975.88
2023-04-08T23:58:40.261Z,100973.39
